createdAt,value
2018-10-12T00:00:01.198Z,81.42
2018-10-12T00:00:32.329Z,80.95
2018-10-12T00:01:03.451Z,81.17
2018-10-12T00:01:34.618Z,81.02
2018-10-12T00:02:05.812Z,80.72
2018-10-12T00:02:36.914Z,80.96
2018-10-12T00:03:08.038Z,80.94
2018-10-12T00:03:39.141Z,80.36
2018-10-12T00:04:10.297Z,80.81
2018-10-12T00:04:41.446Z,80.93
2018-10-12T00:05:12.555Z,80.44
2018-10-12T00:05:43.726Z,80.49
2018-10-12T00:06:14.834Z,80.40
2018-10-12T00:06:45.939Z,79.94
2018-10-12T00:07:17.112Z,79.99
2018-10-12T00:07:48.220Z,80.11
2018-10-12T00:08:19.318Z,79.49
2018-10-12T00:08:50.473Z,79.46
2018-10-12T00:09:21.591Z,79.14
2018-10-12T00:09:52.701Z,79.25
2018-10-12T00:10:23.805Z,79.22
2018-10-12T00:10:54.911Z,79.28
2018-10-12T00:11:26.012Z,79.37
2018-10-12T00:11:57.137Z,79.12
2018-10-12T00:12:28.321Z,79.30
2018-10-12T00:12:59.469Z,79.37
2018-10-12T00:13:30.589Z,78.51
2018-10-12T00:14:01.722Z,78.83
2018-10-12T00:14:32.863Z,78.73
2018-10-12T00:15:04.005Z,78.34
2018-10-12T00:15:35.178Z,78.38
2018-10-12T00:16:06.282Z,78.52
2018-10-12T00:16:37.413Z,78.17
2018-10-12T00:17:08.531Z,78.07
2018-10-12T00:17:39.652Z,78.38
2018-10-12T00:18:10.769Z,77.86
2018-10-12T00:18:41.879Z,77.91
2018-10-12T00:19:13.030Z,78.12
2018-10-12T00:19:44.130Z,78.17
2018-10-12T00:20:15.238Z,77.99
2018-10-12T00:20:46.379Z,77.76
2018-10-12T00:21:17.523Z,78.04
2018-10-12T00:21:48.652Z,77.88
2018-10-12T00:22:19.759Z,78.07
2018-10-12T00:22:50.857Z,77.38
2018-10-12T00:23:21.965Z,77.29
2018-10-12T00:23:53.124Z,77.56
2018-10-12T00:24:24.274Z,77.42
2018-10-12T00:24:55.449Z,77.84
2018-10-12T00:25:26.564Z,77.66
2018-10-12T00:25:57.694Z,77.18
2018-10-12T00:26:28.812Z,77.66
2018-10-12T00:26:59.961Z,77.15
2018-10-12T00:27:31.062Z,76.80
2018-10-12T00:28:02.169Z,76.91
2018-10-12T00:28:33.287Z,77.28
2018-10-12T00:29:04.422Z,77.09
2018-10-12T00:29:35.561Z,76.60
2018-10-12T00:30:06.669Z,76.55
2018-10-12T00:30:37.836Z,77.35
2018-10-12T00:31:08.999Z,76.84
2018-10-12T00:31:40.104Z,77.48
2018-10-12T00:32:11.229Z,77.10
2018-10-12T00:32:42.339Z,77.14
2018-10-12T00:33:13.466Z,78.04
2018-10-12T00:33:44.587Z,77.74
2018-10-12T00:34:15.691Z,78.16
2018-10-12T00:34:46.850Z,77.62
2018-10-12T00:35:17.983Z,77.51
2018-10-12T00:35:49.106Z,77.91
2018-10-12T00:36:20.277Z,77.77
2018-10-12T00:36:51.458Z,77.88
2018-10-12T00:37:22.567Z,77.70
2018-10-12T00:37:53.702Z,77.84
2018-10-12T00:38:24.820Z,77.59
2018-10-12T00:38:55.945Z,78.12
2018-10-12T00:39:27.045Z,78.22
2018-10-12T00:39:58.227Z,77.69
2018-10-12T00:40:29.343Z,78.27
2018-10-12T00:41:00.481Z,78.18
2018-10-12T00:41:31.605Z,78.23
2018-10-12T00:42:02.721Z,77.57
2018-10-12T00:42:33.858Z,78.10
2018-10-12T00:43:04.957Z,77.99
2018-10-12T00:43:36.073Z,78.38
2018-10-12T00:44:07.207Z,78.30
2018-10-12T00:44:38.369Z,78.04
2018-10-12T00:45:09.580Z,78.31
2018-10-12T00:45:40.687Z,77.81
2018-10-12T00:46:11.795Z,78.09
2018-10-12T00:46:42.951Z,78.11
2018-10-12T00:47:14.211Z,78.18
2018-10-12T00:47:45.328Z,78.27
2018-10-12T00:48:16.431Z,78.12
2018-10-12T00:48:47.574Z,78.49
2018-10-12T00:49:18.735Z,78.12
2018-10-12T00:49:49.960Z,78.17
2018-10-12T00:50:21.012Z,78.92
2018-10-12T00:50:52.120Z,78.63
2018-10-12T00:51:23.276Z,78.48
2018-10-12T00:51:54.392Z,78.50
2018-10-12T00:52:25.519Z,78.82
2018-10-12T00:52:56.645Z,77.88
2018-10-12T00:53:27.752Z,77.95
2018-10-12T00:53:58.863Z,78.49
2018-10-12T00:54:29.982Z,78.25
2018-10-12T00:55:01.130Z,78.13
2018-10-12T00:55:32.242Z,78.08
2018-10-12T00:56:03.358Z,78.58
2018-10-12T00:56:34.471Z,78.77
2018-10-12T00:57:05.608Z,78.63
2018-10-12T00:57:36.728Z,78.41
2018-10-12T00:58:07.838Z,78.08
2018-10-12T00:58:38.936Z,77.81
2018-10-12T00:59:10.108Z,78.01
2018-10-12T00:59:41.240Z,77.84
2018-10-12T01:00:12.374Z,78.29
2018-10-12T01:00:43.489Z,77.97
2018-10-12T01:01:14.590Z,78.19
2018-10-12T01:01:45.698Z,77.72
2018-10-12T01:02:16.833Z,77.75
2018-10-12T01:02:48.009Z,77.77
2018-10-12T01:03:19.151Z,77.78
2018-10-12T01:03:50.254Z,77.99
2018-10-12T01:04:21.386Z,78.14
2018-10-12T01:04:52.505Z,78.35
2018-10-12T01:05:23.636Z,78.18
2018-10-12T01:05:54.747Z,78.43
2018-10-12T01:06:25.930Z,78.76
2018-10-12T01:06:57.053Z,78.57
2018-10-12T01:07:28.158Z,78.30
2018-10-12T01:07:59.308Z,77.93
2018-10-12T01:08:30.405Z,78.45
2018-10-12T01:09:01.526Z,78.58
2018-10-12T01:09:32.699Z,78.63
2018-10-12T01:10:03.812Z,77.97
2018-10-12T01:10:34.938Z,78.61
2018-10-12T01:11:06.047Z,78.37
2018-10-12T01:11:37.174Z,78.23
2018-10-12T01:12:08.331Z,78.00
2018-10-12T01:12:39.482Z,77.84
2018-10-12T01:13:10.591Z,77.36
2018-10-12T01:13:41.711Z,77.59
2018-10-12T01:14:12.850Z,77.77
2018-10-12T01:14:44.007Z,77.57
2018-10-12T01:15:15.113Z,77.28
2018-10-12T01:15:46.217Z,77.53
2018-10-12T01:16:17.319Z,77.80
2018-10-12T01:16:48.427Z,77.38
2018-10-12T01:17:19.631Z,77.90
2018-10-12T01:17:50.771Z,77.79
2018-10-12T01:18:21.883Z,78.11
2018-10-12T01:18:52.990Z,77.42
2018-10-12T01:19:24.099Z,77.59
2018-10-12T01:19:55.243Z,77.59
2018-10-12T01:20:26.351Z,77.85
2018-10-12T01:20:57.463Z,77.78
2018-10-12T01:21:28.615Z,77.40
2018-10-12T01:21:59.749Z,77.95
2018-10-12T01:22:30.853Z,77.50
2018-10-12T01:23:01.971Z,77.24
2018-10-12T01:23:33.083Z,77.77
2018-10-12T01:24:04.182Z,77.54
2018-10-12T01:24:35.286Z,78.18
2018-10-12T01:25:06.463Z,77.62
2018-10-12T01:25:37.596Z,77.77
2018-10-12T01:26:08.741Z,77.25
2018-10-12T01:26:39.862Z,77.18
2018-10-12T01:27:11.005Z,77.67
2018-10-12T01:27:42.138Z,77.25
2018-10-12T01:28:13.280Z,77.39
2018-10-12T01:28:44.414Z,77.23
2018-10-12T01:29:15.526Z,77.34
2018-10-12T01:29:46.636Z,77.81
2018-10-12T01:30:17.793Z,77.91
2018-10-12T01:30:48.915Z,77.96
2018-10-12T01:31:20.194Z,77.62
2018-10-12T01:31:51.321Z,78.19
2018-10-12T01:32:22.442Z,78.01
2018-10-12T01:32:53.574Z,78.49
2018-10-12T01:33:24.685Z,77.92
2018-10-12T01:33:55.862Z,77.89
2018-10-12T01:34:27.015Z,77.80
2018-10-12T01:34:58.152Z,77.99
2018-10-12T01:35:29.305Z,77.93
2018-10-12T01:36:00.405Z,78.03
2018-10-12T01:36:31.518Z,77.80
2018-10-12T01:37:02.657Z,78.34
2018-10-12T01:37:33.756Z,78.29
2018-10-12T01:38:04.861Z,78.01
2018-10-12T01:38:35.962Z,77.49
2018-10-12T01:39:07.143Z,77.90
2018-10-12T01:39:38.246Z,78.24
2018-10-12T01:40:09.370Z,78.51
2018-10-12T01:40:40.517Z,78.47
2018-10-12T01:41:11.650Z,78.33
2018-10-12T01:41:42.767Z,79.11
2018-10-12T01:42:13.917Z,79.64
2018-10-12T01:42:45.027Z,78.78
2018-10-12T01:43:16.161Z,78.93
2018-10-12T01:43:47.271Z,78.60
2018-10-12T01:44:18.413Z,79.06
2018-10-12T01:44:49.545Z,78.54
2018-10-12T01:45:20.658Z,78.69
2018-10-12T01:45:51.777Z,78.87
2018-10-12T01:46:22.906Z,78.55
2018-10-12T01:46:54.013Z,78.52
2018-10-12T01:47:25.182Z,78.61
2018-10-12T01:47:56.285Z,78.05
2018-10-12T01:48:27.390Z,78.17
2018-10-12T01:48:58.491Z,78.29
2018-10-12T01:49:29.586Z,78.26
2018-10-12T01:50:00.714Z,78.88
2018-10-12T01:50:31.867Z,78.66
2018-10-12T01:51:02.996Z,78.39
2018-10-12T01:51:34.159Z,78.47
2018-10-12T01:52:05.269Z,77.82
2018-10-12T01:52:36.398Z,78.05
2018-10-12T01:53:07.635Z,77.88
2018-10-12T01:53:38.743Z,78.68
2018-10-12T01:54:09.880Z,78.56
2018-10-12T01:54:40.990Z,78.60
2018-10-12T01:55:12.127Z,78.29
2018-10-12T01:55:43.234Z,78.32
2018-10-12T01:56:14.408Z,78.03
2018-10-12T01:56:45.568Z,78.52
2018-10-12T01:57:16.673Z,78.54
2018-10-12T01:57:47.865Z,78.52
2018-10-12T01:58:19.030Z,78.61
2018-10-12T01:58:50.135Z,78.57
2018-10-12T01:59:21.247Z,78.87
2018-10-12T01:59:52.351Z,78.83
2018-10-12T02:00:23.466Z,78.87
2018-10-12T02:00:54.579Z,78.54
2018-10-12T02:01:25.709Z,78.30
2018-10-12T02:01:56.889Z,78.27
2018-10-12T02:02:28.055Z,78.21
2018-10-12T02:02:59.157Z,78.87
2018-10-12T02:03:30.254Z,78.62
2018-10-12T02:04:01.375Z,78.11
2018-10-12T02:04:32.483Z,77.92
2018-10-12T02:05:03.589Z,78.26
2018-10-12T02:05:34.697Z,77.70
2018-10-12T02:06:05.825Z,77.76
2018-10-12T02:06:36.929Z,77.78
2018-10-12T02:07:08.097Z,77.71
2018-10-12T02:07:39.189Z,77.95
2018-10-12T02:08:10.329Z,77.76
2018-10-12T02:08:41.453Z,78.23
2018-10-12T02:09:12.577Z,78.15
2018-10-12T02:09:43.676Z,77.75
2018-10-12T02:10:14.851Z,77.33
2018-10-12T02:10:45.959Z,77.70
2018-10-12T02:11:17.094Z,77.18
2018-10-12T02:11:48.211Z,77.42
2018-10-12T02:12:19.344Z,77.47
2018-10-12T02:12:50.489Z,77.42
2018-10-12T02:13:21.636Z,77.91
2018-10-12T02:13:52.794Z,78.34
2018-10-12T02:14:23.954Z,78.34
2018-10-12T02:14:55.075Z,78.75
2018-10-12T02:15:26.176Z,78.84
2018-10-12T02:15:57.284Z,79.16
2018-10-12T02:16:28.387Z,79.04
2018-10-12T02:16:59.498Z,79.09
2018-10-12T02:17:30.604Z,78.60
2018-10-12T02:18:01.702Z,78.62
2018-10-12T02:18:32.856Z,78.90
2018-10-12T02:19:03.997Z,79.29
2018-10-12T02:19:35.138Z,79.85
2018-10-12T02:20:06.239Z,79.39
2018-10-12T02:20:37.373Z,79.45
2018-10-12T02:21:08.482Z,79.24
2018-10-12T02:21:39.611Z,79.12
2018-10-12T02:22:10.709Z,79.36
2018-10-12T02:22:41.826Z,79.66
2018-10-12T02:23:12.932Z,79.44
2018-10-12T02:23:44.082Z,79.56
2018-10-12T02:24:15.225Z,79.43
2018-10-12T02:24:47.032Z,79.03
2018-10-12T02:25:18.190Z,79.25
2018-10-12T02:25:49.298Z,79.46
2018-10-12T02:26:20.406Z,78.86
2018-10-12T02:26:51.577Z,79.00
2018-10-12T02:27:22.739Z,78.81
2018-10-12T02:27:53.889Z,78.65
2018-10-12T02:28:25.000Z,78.95
2018-10-12T02:28:56.156Z,78.56
2018-10-12T02:29:27.274Z,79.30
2018-10-12T02:29:58.402Z,79.47
2018-10-12T02:30:29.540Z,79.18
2018-10-12T02:31:00.694Z,79.53
2018-10-12T02:31:31.789Z,79.36
2018-10-12T02:32:02.906Z,79.53
2018-10-12T02:32:34.035Z,79.29
2018-10-12T02:33:05.134Z,79.40
2018-10-12T02:33:36.243Z,79.41
2018-10-12T02:34:07.369Z,79.01
2018-10-12T02:34:38.466Z,79.51
2018-10-12T02:35:09.662Z,79.47
2018-10-12T02:35:40.793Z,79.47
2018-10-12T02:36:11.897Z,79.19
2018-10-12T02:36:42.998Z,79.25
2018-10-12T02:37:14.103Z,79.44
2018-10-12T02:37:45.219Z,79.39
2018-10-12T02:38:16.328Z,79.18
2018-10-12T02:38:47.445Z,79.34
2018-10-12T02:39:55.935Z,79.31
2018-10-12T02:40:27.079Z,78.88
2018-10-12T02:40:58.206Z,78.80
2018-10-12T02:41:29.311Z,78.96
2018-10-12T02:42:00.459Z,78.64
2018-10-12T02:42:31.578Z,78.49
2018-10-12T02:43:02.683Z,78.53
2018-10-12T02:43:33.810Z,78.24
2018-10-12T02:44:04.950Z,78.68
2018-10-12T02:44:36.093Z,78.58
2018-10-12T02:45:07.217Z,78.65
2018-10-12T02:45:38.327Z,77.93
2018-10-12T02:46:09.444Z,78.11
2018-10-12T02:46:40.568Z,78.15
2018-10-12T02:47:11.681Z,78.27
2018-10-12T02:47:42.797Z,77.83
2018-10-12T02:48:13.951Z,77.94
2018-10-12T02:48:45.109Z,77.99
2018-10-12T02:49:16.214Z,77.47
2018-10-12T02:49:47.335Z,77.40
2018-10-12T02:50:18.448Z,77.43
2018-10-12T02:50:49.564Z,77.04
2018-10-12T02:51:20.671Z,76.90
2018-10-12T02:51:51.796Z,77.58
2018-10-12T02:52:22.925Z,77.67
2018-10-12T02:52:54.028Z,77.62
2018-10-12T02:53:25.172Z,77.11
2018-10-12T02:53:56.344Z,77.01
2018-10-12T02:54:27.471Z,77.30
2018-10-12T02:54:58.606Z,77.10
2018-10-12T02:55:29.738Z,77.37
2018-10-12T02:56:00.845Z,77.72
2018-10-12T02:56:31.942Z,77.86
2018-10-12T02:57:03.051Z,77.32
2018-10-12T02:57:34.192Z,77.24
2018-10-12T02:58:05.338Z,77.19
2018-10-12T02:58:36.471Z,77.57
2018-10-12T02:59:07.603Z,77.77
2018-10-12T02:59:38.741Z,77.41
2018-10-12T03:00:09.863Z,77.71
2018-10-12T03:00:40.969Z,77.21
2018-10-12T03:01:12.074Z,77.36
2018-10-12T03:01:43.184Z,77.69
2018-10-12T03:02:14.285Z,77.33
2018-10-12T03:02:45.405Z,77.64
2018-10-12T03:03:16.539Z,77.50
2018-10-12T03:03:47.690Z,78.01
2018-10-12T03:04:18.809Z,77.72
2018-10-12T03:04:49.950Z,77.94
2018-10-12T03:05:21.108Z,78.36
2018-10-12T03:05:52.254Z,77.99
2018-10-12T03:06:23.354Z,78.21
2018-10-12T03:06:54.453Z,78.46
2018-10-12T03:07:25.549Z,78.35
2018-10-12T03:07:56.648Z,79.03
2018-10-12T03:08:27.746Z,78.48
2018-10-12T03:08:58.905Z,78.82
2018-10-12T03:09:30.041Z,79.32
2018-10-12T03:10:01.200Z,79.00
2018-10-12T03:10:32.328Z,78.63
2018-10-12T03:11:03.468Z,78.90
2018-10-12T03:11:34.569Z,79.52
2018-10-12T03:12:05.709Z,79.25
2018-10-12T03:12:36.808Z,78.83
2018-10-12T03:13:07.929Z,79.21
2018-10-12T03:13:39.035Z,79.69
2018-10-12T03:14:10.158Z,79.12
2018-10-12T03:14:41.278Z,79.44
2018-10-12T03:15:12.475Z,79.68
2018-10-12T03:15:43.585Z,79.26
2018-10-12T03:16:14.701Z,79.19
2018-10-12T03:16:45.835Z,79.14
2018-10-12T03:17:16.939Z,79.64
2018-10-12T03:17:48.042Z,79.35
2018-10-12T03:18:19.222Z,78.33
2018-10-12T03:18:50.404Z,79.10
2018-10-12T03:19:21.538Z,78.73
2018-10-12T03:19:52.639Z,78.97
2018-10-12T03:20:23.771Z,78.95
2018-10-12T03:20:54.879Z,78.49
2018-10-12T03:21:26.035Z,78.57
2018-10-12T03:21:57.150Z,78.13
2018-10-12T03:22:28.290Z,78.12
2018-10-12T03:22:59.441Z,78.26
2018-10-12T03:23:30.582Z,77.98
2018-10-12T03:24:01.788Z,78.34
2018-10-12T03:24:32.913Z,78.62
2018-10-12T03:25:04.075Z,78.21
2018-10-12T03:25:35.204Z,78.29
2018-10-12T03:26:06.318Z,78.13
2018-10-12T03:26:37.480Z,78.45
2018-10-12T03:27:08.614Z,78.08
2018-10-12T03:27:39.745Z,78.04
2018-10-12T03:28:10.901Z,78.39
2018-10-12T03:28:42.039Z,77.63
2018-10-12T03:29:13.215Z,77.90
2018-10-12T03:29:44.362Z,77.59
2018-10-12T03:30:15.517Z,77.30
2018-10-12T03:30:46.627Z,77.71
2018-10-12T03:31:17.757Z,76.83
2018-10-12T03:31:48.963Z,77.11
2018-10-12T03:32:20.097Z,76.97
2018-10-12T03:32:51.198Z,77.10
2018-10-12T03:33:22.303Z,76.79
2018-10-12T03:33:53.458Z,77.48
2018-10-12T03:34:24.671Z,76.93
2018-10-12T03:34:55.819Z,76.74
2018-10-12T03:35:26.933Z,76.77
2018-10-12T03:35:58.079Z,76.78
2018-10-12T03:36:29.209Z,77.43
2018-10-12T03:37:00.413Z,77.19
2018-10-12T03:37:31.575Z,77.23
2018-10-12T03:38:02.709Z,77.42
2018-10-12T03:38:33.887Z,77.70
2018-10-12T03:39:05.635Z,77.31
2018-10-12T03:39:36.860Z,77.11
2018-10-12T03:40:07.985Z,77.53
2018-10-12T03:40:39.089Z,77.30
2018-10-12T03:41:10.271Z,77.00
2018-10-12T03:41:41.493Z,76.70
2018-10-12T03:42:12.641Z,77.40
2018-10-12T03:42:43.811Z,77.16
2018-10-12T03:43:14.931Z,76.89
2018-10-12T03:43:46.105Z,78.01
2018-10-12T03:44:17.231Z,77.28
2018-10-12T03:44:48.329Z,77.44
2018-10-12T03:45:19.463Z,77.15
2018-10-12T03:45:50.587Z,77.24
2018-10-12T03:46:21.727Z,76.84
2018-10-12T03:46:52.834Z,76.95
2018-10-12T03:47:23.974Z,76.39
2018-10-12T03:47:55.110Z,76.90
2018-10-12T03:48:26.250Z,76.52
2018-10-12T03:48:57.367Z,76.86
2018-10-12T03:49:28.474Z,76.75
2018-10-12T03:49:59.595Z,76.67
2018-10-12T03:50:30.880Z,76.41
2018-10-12T03:51:01.985Z,77.02
2018-10-12T03:51:33.108Z,77.11
2018-10-12T03:52:04.272Z,77.00
2018-10-12T03:52:35.421Z,76.73
2018-10-12T03:53:06.528Z,77.21
2018-10-12T03:53:37.641Z,77.08
2018-10-12T03:54:08.746Z,77.39
2018-10-12T03:54:40.071Z,77.44
2018-10-12T03:55:11.791Z,77.11
2018-10-12T03:55:42.946Z,77.60
2018-10-12T03:56:14.105Z,77.39
2018-10-12T03:56:45.218Z,77.17
2018-10-12T03:57:16.334Z,77.56
2018-10-12T03:57:47.488Z,77.39
2018-10-12T03:58:18.589Z,77.53
2018-10-12T03:58:49.733Z,77.69
2018-10-12T03:59:20.830Z,77.48
2018-10-12T03:59:51.955Z,76.93
2018-10-12T04:00:23.167Z,77.25
2018-10-12T04:00:54.291Z,77.09
2018-10-12T04:01:25.426Z,77.59
2018-10-12T04:01:56.535Z,77.40
2018-10-12T04:02:27.665Z,77.02
2018-10-12T04:02:58.827Z,77.14
2018-10-12T04:03:29.943Z,77.05
2018-10-12T04:04:01.038Z,77.65
2018-10-12T04:04:32.137Z,77.42
2018-10-12T04:05:03.244Z,77.45
2018-10-12T04:05:34.439Z,77.67
2018-10-12T04:06:05.609Z,77.41
2018-10-12T04:06:36.775Z,77.04
2018-10-12T04:07:07.881Z,76.99
2018-10-12T04:07:39.042Z,77.25
2018-10-12T04:08:10.202Z,76.80
2018-10-12T04:08:41.300Z,76.78
2018-10-12T04:09:12.446Z,76.77
2018-10-12T04:09:43.546Z,76.70
2018-10-12T04:10:14.675Z,77.08
2018-10-12T04:10:45.917Z,76.86
2018-10-12T04:11:17.035Z,76.43
2018-10-12T04:11:48.147Z,76.49
2018-10-12T04:12:19.296Z,77.11
2018-10-12T04:12:50.374Z,76.80
2018-10-12T04:13:21.491Z,76.71
2018-10-12T04:13:52.596Z,76.96
2018-10-12T04:14:23.758Z,76.46
2018-10-12T04:14:54.872Z,76.70
2018-10-12T04:15:27.617Z,76.73
2018-10-12T04:15:58.757Z,76.57
2018-10-12T04:16:29.872Z,76.83
2018-10-12T04:17:00.996Z,77.14
2018-10-12T04:17:32.165Z,77.21
2018-10-12T04:18:03.261Z,77.50
2018-10-12T04:18:34.399Z,77.70
2018-10-12T04:19:05.519Z,77.19
2018-10-12T04:19:36.640Z,77.36
2018-10-12T04:20:07.781Z,77.21
2018-10-12T04:20:38.906Z,77.44
2018-10-12T04:21:10.246Z,77.79
2018-10-12T04:21:41.361Z,77.21
2018-10-12T04:22:12.471Z,77.80
2018-10-12T04:22:43.582Z,77.87
2018-10-12T04:23:14.712Z,77.91
2018-10-12T04:23:45.867Z,77.47
2018-10-12T04:24:16.983Z,77.74
2018-10-12T04:24:48.118Z,77.77
2018-10-12T04:25:19.279Z,77.35
2018-10-12T04:25:50.375Z,77.51
2018-10-12T04:26:21.521Z,77.94
2018-10-12T04:26:52.684Z,78.42
2018-10-12T04:27:23.799Z,78.27
2018-10-12T04:27:54.923Z,78.27
2018-10-12T04:28:26.058Z,78.28
2018-10-12T04:28:57.154Z,77.93
2018-10-12T04:29:28.269Z,78.05
2018-10-12T04:29:59.373Z,78.62
2018-10-12T04:30:30.503Z,78.52
2018-10-12T04:31:01.606Z,78.52
2018-10-12T04:31:32.773Z,78.54
2018-10-12T04:32:04.151Z,78.32
2018-10-12T04:32:35.257Z,78.46
2018-10-12T04:33:06.366Z,78.68
2018-10-12T04:33:37.490Z,78.61
2018-10-12T04:34:08.619Z,79.04
2018-10-12T04:34:40.477Z,79.09
2018-10-12T04:35:11.604Z,78.83
2018-10-12T04:35:42.754Z,78.50
2018-10-12T04:36:13.919Z,78.88
2018-10-12T04:36:45.089Z,79.23
2018-10-12T04:37:16.225Z,79.38
2018-10-12T04:37:47.376Z,79.14
2018-10-12T04:38:18.522Z,78.85
2018-10-12T04:38:49.643Z,78.42
2018-10-12T04:39:20.768Z,78.28
2018-10-12T04:39:51.918Z,78.94
2018-10-12T04:40:23.043Z,78.74
2018-10-12T04:40:54.144Z,78.63
2018-10-12T04:41:25.266Z,78.89
2018-10-12T04:41:56.399Z,78.40
2018-10-12T04:42:27.521Z,78.85
2018-10-12T04:42:58.762Z,78.98
2018-10-12T04:43:29.863Z,79.04
2018-10-12T04:44:00.961Z,78.81
2018-10-12T04:44:32.124Z,78.81
2018-10-12T04:45:03.250Z,78.89
2018-10-12T04:45:34.370Z,79.16
2018-10-12T04:46:05.552Z,79.22
2018-10-12T04:46:36.653Z,79.14
2018-10-12T04:47:07.847Z,79.49
2018-10-12T04:47:38.968Z,79.54
2018-10-12T04:48:10.179Z,79.25
2018-10-12T04:48:41.299Z,79.17
2018-10-12T04:49:12.409Z,78.77
2018-10-12T04:49:43.563Z,79.11
2018-10-12T04:50:14.724Z,79.02
2018-10-12T04:50:45.829Z,79.25
2018-10-12T04:51:16.970Z,78.83
2018-10-12T04:51:48.079Z,79.34
2018-10-12T04:52:19.196Z,79.46
2018-10-12T04:52:50.343Z,79.06
2018-10-12T04:53:21.542Z,79.46
2018-10-12T04:53:52.733Z,79.10
2018-10-12T04:54:23.914Z,79.34
2018-10-12T04:54:55.099Z,79.47
2018-10-12T04:55:26.223Z,79.33
2018-10-12T04:55:57.339Z,79.29
2018-10-12T04:56:28.461Z,79.29
2018-10-12T04:56:59.590Z,79.21
2018-10-12T04:57:30.709Z,79.78
2018-10-12T04:58:01.820Z,79.54
2018-10-12T04:58:32.935Z,79.55
2018-10-12T04:59:04.085Z,79.71
2018-10-12T04:59:35.215Z,79.96
2018-10-12T05:00:06.345Z,79.83
2018-10-12T05:00:37.460Z,79.35
2018-10-12T05:01:08.643Z,79.59
2018-10-12T05:01:39.785Z,79.71
2018-10-12T05:02:10.923Z,79.32
2018-10-12T05:02:42.085Z,79.88
2018-10-12T05:03:13.216Z,79.39
2018-10-12T05:03:44.354Z,79.44
2018-10-12T05:04:15.457Z,79.03
2018-10-12T05:04:46.606Z,79.33
2018-10-12T05:05:17.737Z,79.84
2018-10-12T05:05:49.084Z,79.48
2018-10-12T05:06:20.211Z,79.55
2018-10-12T05:06:51.957Z,78.98
2018-10-12T05:07:23.196Z,78.97
2018-10-12T05:07:54.320Z,78.88
2018-10-12T05:08:25.500Z,78.45
2018-10-12T05:08:56.630Z,78.80
2018-10-12T05:09:27.788Z,79.05
2018-10-12T05:09:58.898Z,78.39
2018-10-12T05:10:30.845Z,78.46
2018-10-12T05:11:02.030Z,78.50
2018-10-12T05:11:33.177Z,78.89
2018-10-12T05:12:04.306Z,78.37
2018-10-12T05:12:35.439Z,78.64
2018-10-12T05:13:06.591Z,78.27
2018-10-12T05:13:37.706Z,78.27
2018-10-12T05:14:08.836Z,78.79
2018-10-12T05:14:39.946Z,78.47
2018-10-12T05:15:11.086Z,78.77
2018-10-12T05:15:42.238Z,78.92
2018-10-12T05:16:13.399Z,78.40
2018-10-12T05:16:44.512Z,78.77
2018-10-12T05:17:15.677Z,78.21
2018-10-12T05:17:46.822Z,78.42
2018-10-12T05:18:17.963Z,78.76
2018-10-12T05:18:49.125Z,78.81
2018-10-12T05:19:20.279Z,78.59
2018-10-12T05:19:51.384Z,78.37
2018-10-12T05:20:22.513Z,78.63
2018-10-12T05:20:53.722Z,78.31
2018-10-12T05:21:24.855Z,78.77
2018-10-12T05:21:56.115Z,78.43
2018-10-12T05:22:27.159Z,78.57
2018-10-12T05:22:58.279Z,78.22
2018-10-12T05:23:29.520Z,78.43
2018-10-12T05:24:00.657Z,78.49
2018-10-12T05:24:31.841Z,78.93
2018-10-12T05:25:02.958Z,78.26
2018-10-12T05:25:34.092Z,78.61
2018-10-12T05:26:05.294Z,78.65
2018-10-12T05:26:36.402Z,78.89
2018-10-12T05:27:07.508Z,78.58
2018-10-12T05:27:38.615Z,78.45
2018-10-12T05:28:09.720Z,78.80
2018-10-12T05:28:40.849Z,78.19
2018-10-12T05:29:11.972Z,78.68
2018-10-12T05:29:43.094Z,78.96
2018-10-12T05:30:14.329Z,78.75
2018-10-12T05:30:45.397Z,78.95
2018-10-12T05:31:16.544Z,78.79
2018-10-12T05:31:47.657Z,78.64
2018-10-12T05:32:18.782Z,78.92
2018-10-12T05:32:49.891Z,78.35
2018-10-12T05:33:21.019Z,78.75
2018-10-12T05:33:52.135Z,78.69
2018-10-12T05:34:23.272Z,77.93
2018-10-12T05:34:54.435Z,78.57
2018-10-12T05:35:25.641Z,78.36
2018-10-12T05:35:56.819Z,78.64
2018-10-12T05:36:28.003Z,78.29
2018-10-12T05:36:59.186Z,77.68
2018-10-12T05:37:30.313Z,77.67
2018-10-12T05:38:01.438Z,77.66
2018-10-12T05:38:32.576Z,77.50
2018-10-12T05:39:03.763Z,77.23
2018-10-12T05:39:34.865Z,77.16
2018-10-12T05:40:05.991Z,76.86
2018-10-12T05:40:37.093Z,76.99
2018-10-12T05:41:08.227Z,76.90
2018-10-12T05:41:39.403Z,76.53
2018-10-12T05:42:10.554Z,76.74
2018-10-12T05:42:41.728Z,76.60
2018-10-12T05:43:12.955Z,76.54
2018-10-12T05:43:44.046Z,76.71
2018-10-12T05:44:15.263Z,76.46
2018-10-12T05:44:46.420Z,76.36
2018-10-12T05:45:17.669Z,76.68
2018-10-12T05:45:48.784Z,76.29
2018-10-12T05:46:19.935Z,76.31
2018-10-12T05:46:51.123Z,76.37
2018-10-12T05:47:22.240Z,76.18
2018-10-12T05:47:53.356Z,76.76
2018-10-12T05:48:24.549Z,76.66
2018-10-12T05:48:55.932Z,76.57
2018-10-12T05:49:26.966Z,76.70
2018-10-12T05:49:58.137Z,76.54
2018-10-12T05:50:29.238Z,76.93
2018-10-12T05:51:00.355Z,76.55
2018-10-12T05:51:31.503Z,76.53
2018-10-12T05:52:02.699Z,76.25
2018-10-12T05:52:35.003Z,76.09
2018-10-12T05:53:06.156Z,76.33
2018-10-12T05:53:37.279Z,75.64
2018-10-12T05:54:08.427Z,76.17
2018-10-12T05:54:39.779Z,76.48
2018-10-12T05:55:10.885Z,75.93
2018-10-12T05:55:42.049Z,76.05
2018-10-12T05:56:13.226Z,75.77
2018-10-12T05:56:44.367Z,75.66
2018-10-12T05:57:15.467Z,75.27
2018-10-12T05:57:46.677Z,75.28
2018-10-12T05:58:17.801Z,75.39
2018-10-12T05:58:48.948Z,75.23
2018-10-12T05:59:20.115Z,75.78
2018-10-12T05:59:51.241Z,74.70
2018-10-12T06:00:22.352Z,75.07
2018-10-12T06:00:53.466Z,75.11
2018-10-12T06:01:24.661Z,75.49
2018-10-12T06:01:55.762Z,75.23
2018-10-12T06:02:26.915Z,75.75
2018-10-12T06:02:58.179Z,75.82
2018-10-12T06:03:29.459Z,75.86
2018-10-12T06:04:01.490Z,75.37
2018-10-12T06:04:32.609Z,75.75
2018-10-12T06:05:03.809Z,75.36
2018-10-12T06:05:35.403Z,75.40
2018-10-12T06:06:06.565Z,75.35
2018-10-12T06:06:37.735Z,75.72
2018-10-12T06:07:08.900Z,75.38
2018-10-12T06:07:40.010Z,75.31
2018-10-12T06:08:11.139Z,74.87
2018-10-12T06:08:42.267Z,74.68
2018-10-12T06:09:13.443Z,74.57
2018-10-12T06:09:44.647Z,74.24
2018-10-12T06:10:15.720Z,73.60
2018-10-12T06:10:46.834Z,73.20
2018-10-12T06:11:17.965Z,73.18
2018-10-12T06:11:49.113Z,72.48
2018-10-12T06:12:20.229Z,72.03
2018-10-12T06:12:51.455Z,71.41
2018-10-12T06:13:22.595Z,71.36
2018-10-12T06:13:55.416Z,71.31
2018-10-12T06:14:26.626Z,70.82
2018-10-12T06:14:57.851Z,71.07
2018-10-12T06:15:29.031Z,70.47
2018-10-12T06:16:00.176Z,69.87
2018-10-12T06:16:31.396Z,69.27
2018-10-12T06:17:03.107Z,68.61
2018-10-12T06:17:34.222Z,67.92
2018-10-12T06:18:05.342Z,68.00
2018-10-12T06:18:36.455Z,67.98
2018-10-12T06:19:07.606Z,68.19
2018-10-12T06:19:38.734Z,67.96
2018-10-12T06:20:09.833Z,67.45
2018-10-12T06:20:40.979Z,66.77
2018-10-12T06:21:12.105Z,66.21
2018-10-12T06:21:43.341Z,66.56
2018-10-12T06:22:14.412Z,65.62
2018-10-12T06:22:47.924Z,66.28
2018-10-12T06:23:20.017Z,66.17
2018-10-12T06:23:51.176Z,66.02
2018-10-12T06:24:22.364Z,65.96
2018-10-12T06:24:53.527Z,65.65
2018-10-12T06:25:29.168Z,66.43
2018-10-12T06:26:00.366Z,67.12
2018-10-12T06:26:31.494Z,66.87
2018-10-12T06:27:02.614Z,66.76
2018-10-12T06:27:33.967Z,66.49
2018-10-12T06:28:05.199Z,66.89
2018-10-12T06:28:36.352Z,66.09
2018-10-12T06:29:07.461Z,66.29
2018-10-12T06:29:38.570Z,65.64
2018-10-12T06:30:10.719Z,65.52
2018-10-12T06:30:41.840Z,66.18
2018-10-12T06:31:13.015Z,65.86
2018-10-12T06:31:44.163Z,65.99
2018-10-12T06:32:15.343Z,65.35
2018-10-12T06:32:46.506Z,65.53
2018-10-12T06:33:17.644Z,64.96
2018-10-12T06:33:48.902Z,66.09
2018-10-12T06:34:20.039Z,66.15
2018-10-12T06:34:51.382Z,64.99
2018-10-12T06:35:22.535Z,65.59
2018-10-12T06:35:53.718Z,65.74
2018-10-12T06:36:24.947Z,66.08
2018-10-12T06:36:56.077Z,65.92
2018-10-12T06:37:27.263Z,65.26
2018-10-12T06:37:58.416Z,65.97
2018-10-12T06:38:29.510Z,65.29
2018-10-12T06:39:00.666Z,65.77
2018-10-12T06:39:31.794Z,65.16
2018-10-12T06:40:02.994Z,64.35
2018-10-12T06:40:34.141Z,64.76
2018-10-12T06:41:43.001Z,64.25
2018-10-12T06:42:13.973Z,64.11